Time;durP1;ratioP1;P1;durP2;ratioP2;P2;SDS_P1;SDS_P2;PMS_P1;PMS_P2;Temp;Humidity;BMP_temperature;BMP_pressure;BME280_temperature;BME280_humidity;BME280_pressure;Samples;Min_cycle;Max_cycle;Signal;HPM_P1;HPM_P2
2022/02/16 00:01:22;;;;;;;8;6;;;;;;;;;;;;;
2022/02/16 00:03:48;;;;;;;7.3;5.8;;;;;;;;;;;;;
2022/02/16 00:06:13;;;;;;;7.5;5.7;;;;;;;;;;;;;
2022/02/16 00:08:49;;;;;;;7.4;5.7;;;;;;;;;;;;;
2022/02/16 00:11:14;;;;;;;7.8;5.8;;;;;;;;;;;;;
2022/02/16 00:13:43;;;;;;;8.5;6.1;;;;;;;;;;;;;
2022/02/16 00:16:12;;;;;;;9.8;6.2;;;;;;;;;;;;;
2022/02/16 00:18:41;;;;;;;10.3;6.6;;;;;;;;;;;;;
2022/02/16 00:21:10;;;;;;;8;5.9;;;;;;;;;;;;;
2022/02/16 00:23:38;;;;;;;7.7;6.1;;;;;;;;;;;;;
2022/02/16 00:26:08;;;;;;;9.2;6.4;;;;;;;;;;;;;
2022/02/16 00:28:37;;;;;;;7.6;6.4;;;;;;;;;;;;;
2022/02/16 00:31:07;;;;;;;7.6;6;;;;;;;;;;;;;
2022/02/16 00:33:35;;;;;;;6.8;5.1;;;;;;;;;;;;;
2022/02/16 00:36:04;;;;;;;7.5;5.3;;;;;;;;;;;;;
2022/02/16 00:38:29;;;;;;;7;5.8;;;;;;;;;;;;;
2022/02/16 00:41:00;;;;;;;8;5.8;;;;;;;;;;;;;
2022/02/16 00:43:29;;;;;;;7.8;5.8;;;;;;;;;;;;;
2022/02/16 00:46:00;;;;;;;6.9;5.6;;;;;;;;;;;;;
2022/02/16 00:48:29;;;;;;;6.7;4.7;;;;;;;;;;;;;
2022/02/16 00:50:54;;;;;;;4.8;4;;;;;;;;;;;;;
2022/02/16 00:53:19;;;;;;;5.1;4.4;;;;;;;;;;;;;
2022/02/16 00:55:46;;;;;;;5.5;4.3;;;;;;;;;;;;;
2022/02/16 00:58:11;;;;;;;5.4;4.1;;;;;;;;;;;;;
2022/02/16 01:00:36;;;;;;;5.9;4.6;;;;;;;;;;;;;
2022/02/16 01:03:02;;;;;;;6.2;4.9;;;;;;;;;;;;;
2022/02/16 01:05:27;;;;;;;5.9;4.4;;;;;;;;;;;;;
2022/02/16 01:07:53;;;;;;;5.7;4.3;;;;;;;;;;;;;
2022/02/16 01:10:19;;;;;;;5.6;4.5;;;;;;;;;;;;;
2022/02/16 01:12:47;;;;;;;5.2;3.8;;;;;;;;;;;;;
2022/02/16 01:15:13;;;;;;;5.4;4;;;;;;;;;;;;;
2022/02/16 01:17:40;;;;;;;7.6;4.7;;;;;;;;;;;;;
2022/02/16 01:20:13;;;;;;;6;4.6;;;;;;;;;;;;;
2022/02/16 01:22:39;;;;;;;5.7;4.2;;;;;;;;;;;;;
2022/02/16 01:25:04;;;;;;;7;4.9;;;;;;;;;;;;;
2022/02/16 01:27:32;;;;;;;6.7;4.8;;;;;;;;;;;;;
2022/02/16 01:29:57;;;;;;;6.8;5.2;;;;;;;;;;;;;
2022/02/16 01:32:23;;;;;;;6.8;5.1;;;;;;;;;;;;;
2022/02/16 01:34:48;;;;;;;23.4;20.9;;;;;;;;;;;;;
2022/02/16 01:37:15;;;;;;;14.2;12.7;;;;;;;;;;;;;
2022/02/16 01:39:40;;;;;;;6.1;4.5;;;;;;;;;;;;;
2022/02/16 01:42:07;;;;;;;5.4;4.9;;;;;;;;;;;;;
2022/02/16 01:44:32;;;;;;;3.8;2.9;;;;;;;;;;;;;
2022/02/16 01:46:58;;;;;;;3.8;3.1;;;;;;;;;;;;;
2022/02/16 01:49:23;;;;;;;4.2;3.1;;;;;;;;;;;;;
2022/02/16 01:51:50;;;;;;;4.3;3.5;;;;;;;;;;;;;
2022/02/16 01:54:15;;;;;;;5.7;4.3;;;;;;;;;;;;;
2022/02/16 01:56:41;;;;;;;4.8;4;;;;;;;;;;;;;
2022/02/16 01:59:06;;;;;;;5.1;4;;;;;;;;;;;;;
2022/02/16 02:01:37;;;;;;;7;4.9;;;;;;;;;;;;;
2022/02/16 02:04:06;;;;;;;3.8;3.3;;;;;;;;;;;;;
2022/02/16 02:06:31;;;;;;;2.6;2.3;;;;;;;;;;;;;
2022/02/16 02:08:57;;;;;;;5.6;3.7;;;;;;;;;;;;;
2022/02/16 02:11:22;;;;;;;3.9;3.5;;;;;;;;;;;;;
2022/02/16 02:13:49;;;;;;;3.6;3.1;;;;;;;;;;;;;
2022/02/16 02:16:14;;;;;;;5;3.3;;;;;;;;;;;;;
2022/02/16 02:18:39;;;;;;;3.8;3.5;;;;;;;;;;;;;
2022/02/16 02:21:06;;;;;;;3.1;2.7;;;;;;;;;;;;;
2022/02/16 02:23:31;;;;;;;3.6;2.5;;;;;;;;;;;;;
2022/02/16 02:26:00;;;;;;;3.8;2.3;;;;;;;;;;;;;
2022/02/16 02:28:28;;;;;;;1.7;1.6;;;;;;;;;;;;;
2022/02/16 02:30:54;;;;;;;3.2;2.8;;;;;;;;;;;;;
2022/02/16 02:33:18;;;;;;;4.3;3.5;;;;;;;;;;;;;
2022/02/16 02:35:44;;;;;;;6.2;3.9;;;;;;;;;;;;;
2022/02/16 02:38:09;;;;;;;6;3.7;;;;;;;;;;;;;
2022/02/16 02:40:35;;;;;;;5.6;3.6;;;;;;;;;;;;;
2022/02/16 02:43:00;;;;;;;4.8;3.4;;;;;;;;;;;;;
2022/02/16 02:45:26;;;;;;;3.1;2.4;;;;;;;;;;;;;
2022/02/16 02:47:51;;;;;;;4;2.4;;;;;;;;;;;;;
2022/02/16 02:50:18;;;;;;;3.1;2.3;;;;;;;;;;;;;
2022/02/16 02:52:43;;;;;;;2.4;2.2;;;;;;;;;;;;;
2022/02/16 02:55:09;;;;;;;2.7;2.3;;;;;;;;;;;;;
2022/02/16 02:57:34;;;;;;;2.6;2.3;;;;;;;;;;;;;
2022/02/16 03:00:00;;;;;;;2.5;2.2;;;;;;;;;;;;;
2022/02/16 03:02:25;;;;;;;2.3;2;;;;;;;;;;;;;
2022/02/16 03:04:52;;;;;;;2.8;2.5;;;;;;;;;;;;;
2022/02/16 03:07:17;;;;;;;2.8;2.3;;;;;;;;;;;;;
2022/02/16 03:09:42;;;;;;;4.8;2.7;;;;;;;;;;;;;
2022/02/16 03:12:08;;;;;;;5.8;2.9;;;;;;;;;;;;;
2022/02/16 03:14:35;;;;;;;3.9;2.8;;;;;;;;;;;;;
2022/02/16 03:17:00;;;;;;;3.4;2.5;;;;;;;;;;;;;
2022/02/16 03:19:26;;;;;;;2.7;2.4;;;;;;;;;;;;;
2022/02/16 03:21:52;;;;;;;20.2;18.3;;;;;;;;;;;;;
2022/02/16 03:24:18;;;;;;;6.7;6;;;;;;;;;;;;;
2022/02/16 03:26:43;;;;;;;3.4;2.9;;;;;;;;;;;;;
2022/02/16 03:29:10;;;;;;;4.4;2.9;;;;;;;;;;;;;
2022/02/16 03:31:35;;;;;;;2.6;2.2;;;;;;;;;;;;;
2022/02/16 03:34:02;;;;;;;2.6;2.4;;;;;;;;;;;;;
2022/02/16 03:36:27;;;;;;;7.9;5.3;;;;;;;;;;;;;
2022/02/16 03:38:54;;;;;;;13.8;8.7;;;;;;;;;;;;;
2022/02/16 03:41:19;;;;;;;8.8;5.3;;;;;;;;;;;;;
2022/02/16 03:43:46;;;;;;;5;3.7;;;;;;;;;;;;;
2022/02/16 03:46:11;;;;;;;3.5;3.2;;;;;;;;;;;;;
2022/02/16 03:48:36;;;;;;;2.7;2.5;;;;;;;;;;;;;
2022/02/16 03:51:01;;;;;;;2.1;1.9;;;;;;;;;;;;;
2022/02/16 03:53:28;;;;;;;3.2;1.8;;;;;;;;;;;;;
2022/02/16 03:55:53;;;;;;;2.7;2;;;;;;;;;;;;;
2022/02/16 03:58:19;;;;;;;2.5;2.3;;;;;;;;;;;;;
2022/02/16 04:02:36;;;;;;;2.6;2;;;;;;;-0.19;95.98926;935.644;;;;
2022/02/16 04:05:10;;;;;;;2.4;2.1;;;;;;;-0.31;95.71973;935.6753;;;;
2022/02/16 04:07:40;;;;;;;3.2;2.3;;;;;;;-0.32;95.72656;935.6865;;;;
2022/02/16 04:10:05;;;;;;;2;1.8;;;;;;;-0.25;95.57617;935.5464;;;;
2022/02/16 04:12:30;;;;;;;3.7;2.2;;;;;;;-0.29;95.69922;935.5572;;;;
2022/02/16 04:15:00;;;;;;;2.3;2;;;;;;;-0.33;95.86914;935.6154;;;;
2022/02/16 04:17:25;;;;;;;2.2;1.8;;;;;;;-0.39;96.25586;935.5156;;;;
2022/02/16 04:19:57;;;;;;;2.4;2.2;;;;;;;-0.3;95.94434;935.5472;;;;
2022/02/16 04:22:21;;;;;;;2.8;2.3;;;;;;;-0.24;95.74512;935.4716;;;;
2022/02/16 04:24:50;;;;;;;3.3;2.7;;;;;;;-0.26;95.84082;935.3716;;;;
2022/02/16 04:27:21;;;;;;;4.3;3.5;;;;;;;-0.26;95.34961;935.3464;;;;
2022/02/16 04:29:52;;;;;;;4.4;3.5;;;;;;;-0.24;95.12109;935.2496;;;;
2022/02/16 04:32:17;;;;;;;3.1;2.6;;;;;;;-0.29;95.27637;935.2925;;;;
2022/02/16 04:34:47;;;;;;;4.7;3.6;;;;;;;-0.34;95.53125;935.267;;;;
2022/02/16 04:37:12;;;;;;;5;3.8;;;;;;;-0.36;95.67383;935.113;;;;
2022/02/16 04:39:42;;;;;;;6.6;3.8;;;;;;;-0.24;95.43359;935.0673;;;;
2022/02/16 04:42:07;;;;;;;3.8;3.1;;;;;;;-0.38;95.68066;935.0714;;;;
2022/02/16 04:44:38;;;;;;;3.3;2.5;;;;;;;-0.37;96.42871;935.0357;;;;
2022/02/16 04:47:03;;;;;;;2.7;2.4;;;;;;;-0.26;96.25098;934.9662;;;;
2022/02/16 04:49:32;;;;;;;3.9;2.9;;;;;;;-0.29;95.86621;934.951;;;;
2022/02/16 04:52:04;;;;;;;2.8;2.4;;;;;;;-0.2;95.69922;934.8887;;;;
2022/02/16 04:54:29;;;;;;;3.9;3.6;;;;;;;-0.32;95.6709;934.8744;;;;
2022/02/16 04:56:54;;;;;;;3.6;3.3;;;;;;;-0.36;96.07227;934.7834;;;;
2022/02/16 04:59:24;;;;;;;3.3;3;;;;;;;-0.39;96.25781;934.7769;;;;
2022/02/16 05:01:53;;;;;;;3.7;3.4;;;;;;;-0.46;96.29688;934.7742;;;;
2022/02/16 05:04:23;;;;;;;3.9;3.5;;;;;;;-0.47;96.91602;934.7353;;;;
2022/02/16 05:06:48;;;;;;;5.8;3.7;;;;;;;-0.43;96.71289;934.622;;;;
2022/02/16 05:09:18;;;;;;;3.5;3.1;;;;;;;-0.39;96.51172;934.5318;;;;
2022/02/16 05:11:47;;;;;;;2.8;2.4;;;;;;;-0.38;96.46875;934.515;;;;
2022/02/16 05:14:12;;;;;;;3.1;2.8;;;;;;;-0.46;96.63965;934.5387;;;;
2022/02/16 05:16:38;;;;;;;3.2;2.1;;;;;;;-0.42;96.66113;934.5006;;;;
2022/02/16 05:19:07;;;;;;;2.9;2;;;;;;;-0.49;96.67773;934.3459;;;;
2022/02/16 05:21:32;;;;;;;5.7;3.1;;;;;;;-0.4;96.15527;934.5237;;;;
2022/02/16 05:24:01;;;;;;;3.7;2.1;;;;;;;-0.44;96.17676;934.463;;;;
2022/02/16 05:26:27;;;;;;;3.5;1.9;;;;;;;-0.33;96.29199;934.4406;;;;
2022/02/16 05:28:52;;;;;;;2.2;1.6;;;;;;;-0.11;95.58398;934.3689;;;;
2022/02/16 05:31:27;;;;;;;2.6;1.7;;;;;;;-0.02;94.8916;934.2985;;;;
2022/02/16 05:33:58;;;;;;;6.7;3.9;;;;;;;0.08;94.33496;934.27;;;;
2022/02/16 05:36:26;;;;;;;8;4.7;;;;;;;0.19;93.24707;934.248;;;;
2022/02/16 05:38:57;;;;;;;6;4.5;;;;;;;0.04;93.39063;934.1646;;;;
2022/02/16 05:41:27;;;;;;;5.8;4.5;;;;;;;0.07;93.33203;934.1188;;;;
2022/02/16 05:43:51;;;;;;;6;3.5;;;;;;;0.06;93.60645;934.0704;;;;
2022/02/16 05:46:21;;;;;;;6;4.3;;;;;;;0.04;93.73633;934.1102;;;;
2022/02/16 05:48:46;;;;;;;4.1;2.8;;;;;;;0.07;93.62012;934.1508;;;;
2022/02/16 05:51:14;;;;;;;3;2.6;;;;;;;-0.07;94.11328;934.1477;;;;
2022/02/16 05:53:39;;;;;;;2;1.4;;;;;;;-0.09;94.35449;934.1384;;;;
2022/02/16 05:56:06;;;;;;;2.6;1.8;;;;;;;0.06;94.16602;934.037;;;;
2022/02/16 05:58:32;;;;;;;1.8;1.6;;;;;;;0.1;93.84863;934.0447;;;;
2022/02/16 06:01:01;;;;;;;2.9;2.1;;;;;;;-0.19;94.79785;934.1569;;;;
2022/02/16 06:03:32;;;;;;;7.1;4.5;;;;;;;-0.06;94.88379;934.1161;;;;
2022/02/16 06:05:58;;;;;;;7;4.7;;;;;;;0.09;94.64844;934.1273;;;;
2022/02/16 06:08:27;;;;;;;8.5;5.6;;;;;;;0.2;94.24023;934.1557;;;;
2022/02/16 06:10:56;;;;;;;7.8;6;;;;;;;0.14;94.10352;934.048;;;;
2022/02/16 06:13:19;;;;;;;6.8;4.8;;;;;;;0.21;93.60742;934.1545;;;;
2022/02/16 06:15:47;;;;;;;4.5;3.9;;;;;;;0.03;94.24707;934.0653;;;;
2022/02/16 06:18:12;;;;;;;4.6;3.7;;;;;;;0.13;94.70313;934.1265;;;;
2022/02/16 06:20:37;;;;;;;5;3.4;;;;;;;0.35;93.96094;934.1764;;;;
2022/02/16 06:23:08;;;;;;;4.4;3.1;;;;;;;0.34;93.78223;934.1199;;;;
2022/02/16 06:25:39;;;;;;;3;2.2;;;;;;;0.46;93.41797;934.017;;;;
2022/02/16 06:28:14;;;;;;;4.1;2.9;;;;;;;0.53;93.44336;934.0894;;;;
2022/02/16 06:30:43;;;;;;;3.2;2.9;;;;;;;0.65;92.92285;934.0652;;;;
2022/02/16 06:33:15;;;;;;;1.5;1.4;;;;;;;0.65;92.33105;934.052;;;;
2022/02/16 06:35:46;;;;;;;2.3;2.1;;;;;;;0.72;91.88965;933.9952;;;;
2022/02/16 06:38:12;;;;;;;2.9;2.1;;;;;;;0.9;91.37012;933.9631;;;;
2022/02/16 06:40:36;;;;;;;3.2;2.3;;;;;;;0.9;91.31445;933.9013;;;;
2022/02/16 06:43:11;;;;;;;7.1;5.2;;;;;;;0.74;91.75;933.8739;;;;
2022/02/16 06:45:39;;;;;;;4.1;3.6;;;;;;;0.48;93.2998;933.9958;;;;
2022/02/16 06:48:11;;;;;;;16;7.6;;;;;;;0.43;93.93457;934.003;;;;
2022/02/16 06:50:43;;;;;;;13.4;6.6;;;;;;;0.47;94.58887;933.8862;;;;
2022/02/16 06:53:08;;;;;;;15.1;7.2;;;;;;;0.47;94.46875;933.9789;;;;
2022/02/16 06:55:36;;;;;;;17.7;8.1;;;;;;;0.34;94.83008;933.9445;;;;
2022/02/16 06:58:04;;;;;;;13.3;6.7;;;;;;;0.39;95.33105;933.908;;;;
2022/02/16 07:00:29;;;;;;;11.6;6.3;;;;;;;0.52;94.75684;933.954;;;;
2022/02/16 07:02:58;;;;;;;8.3;4.6;;;;;;;0.53;94.54785;933.9233;;;;
2022/02/16 07:05:30;;;;;;;7;4.6;;;;;;;0.56;94.92188;933.8773;;;;
2022/02/16 07:08:01;;;;;;;2.7;2.2;;;;;;;0.55;94.98828;933.8639;;;;
2022/02/16 07:10:36;;;;;;;4.6;3;;;;;;;0.79;94.69531;933.8397;;;;
2022/02/16 07:13:10;;;;;;;8.7;6.5;;;;;;;0.77;94.25586;933.6682;;;;
2022/02/16 07:15:45;;;;;;;4.5;3.7;;;;;;;0.93;93.78809;933.538;;;;
2022/02/16 07:18:10;;;;;;;5.3;4.4;;;;;;;1.09;93.86816;933.5544;;;;
2022/02/16 07:20:37;;;;;;;8.9;6.2;;;;;;;1.36;92.7334;933.6149;;;;
2022/02/16 07:23:09;;;;;;;9.1;6.8;;;;;;;1.42;92.12988;933.5958;;;;
2022/02/16 07:25:34;;;;;;;9.2;6.1;;;;;;;1.26;90.93457;933.4142;;;;
2022/02/16 07:27:59;;;;;;;9.5;6.4;;;;;;;1.44;90.60449;933.4553;;;;
2022/02/16 07:30:33;;;;;;;15.6;10.6;;;;;;;1.57;89.71484;933.4459;;;;
2022/02/16 07:33:06;;;;;;;14.9;9.3;;;;;;;1.66;90.15918;933.3348;;;;
2022/02/16 07:35:39;;;;;;;37.6;24.4;;;;;;;1.74;89.87598;933.3039;;;;
2022/02/16 07:38:10;;;;;;;10.5;6.9;;;;;;;1.95;88.63184;933.3574;;;;
2022/02/16 07:40:43;;;;;;;7.3;4.8;;;;;;;2.27;87.89258;933.3222;;;;
2022/02/16 07:43:12;;;;;;;7.3;4.9;;;;;;;2.41;86.63281;933.3166;;;;
2022/02/16 07:45:37;;;;;;;6.7;5.2;;;;;;;2.49;86.88477;933.3041;;;;
2022/02/16 07:48:07;;;;;;;11.4;5.8;;;;;;;2.69;86.90332;933.2109;;;;
2022/02/16 07:50:32;;;;;;;11.3;5.9;;;;;;;2.79;85.61133;933.2609;;;;
2022/02/16 07:53:01;;;;;;;7.6;5.5;;;;;;;3.36;83.74023;933.1746;;;;
2022/02/16 07:55:26;;;;;;;7;4.4;;;;;;;3.53;82.80664;933.1431;;;;
2022/02/16 07:57:53;;;;;;;6.4;4.4;;;;;;;3.64;80.7168;933.1356;;;;
2022/02/16 08:00:18;;;;;;;37.5;21.5;;;;;;;4.06;79.38965;933.147;;;;
2022/02/16 08:02:46;;;;;;;13.3;7.3;;;;;;;3.84;79.51758;933.0491;;;;
2022/02/16 08:05:11;;;;;;;9.2;5.3;;;;;;;4.45;78.70801;933.1635;;;;
2022/02/16 08:07:39;;;;;;;5.7;4.1;;;;;;;4.56;77.6582;933.0934;;;;
2022/02/16 08:10:04;;;;;;;4.3;3.6;;;;;;;4.02;78.09961;932.9514;;;;
2022/02/16 08:12:35;;;;;;;6.4;3.9;;;;;;;4.34;77.94531;932.972;;;;
2022/02/16 08:15:00;;;;;;;4.4;3.6;;;;;;;4.32;77.6377;932.9023;;;;
2022/02/16 08:17:38;;;;;;;3.7;3.3;;;;;;;4.51;77.48145;932.855;;;;
2022/02/16 08:20:01;;;;;;;4.7;3.4;;;;;;;3.76;78.98633;932.8624;;;;
2022/02/16 08:22:26;;;;;;;4.4;3.1;;;;;;;3.55;80.31738;932.759;;;;
2022/02/16 08:24:57;;;;;;;4;3.2;;;;;;;3.9;79.74316;932.7766;;;;
2022/02/16 08:27:22;;;;;;;4.3;3.1;;;;;;;4.05;80.73926;932.8475;;;;
2022/02/16 08:29:50;;;;;;;2.7;2.2;;;;;;;4.23;79.78027;932.7764;;;;
2022/02/16 08:32:16;;;;;;;2.4;2.2;;;;;;;4.15;80.84473;932.7521;;;;
2022/02/16 08:34:44;;;;;;;2.5;2.3;;;;;;;4.37;81.22656;932.7625;;;;
2022/02/16 08:37:12;;;;;;;3.7;2.9;;;;;;;4.28;81.16504;932.7581;;;;
2022/02/16 08:39:37;;;;;;;6.9;4.9;;;;;;;5.27;79.43359;932.6785;;;;
2022/02/16 08:42:05;;;;;;;6.1;4.9;;;;;;;4.97;77.79199;932.6506;;;;
2022/02/16 08:44:32;;;;;;;4;3;;;;;;;4.55;78.56836;932.6172;;;;
2022/02/16 08:47:00;;;;;;;3.8;3;;;;;;;4.9;77.15723;932.5653;;;;
2022/02/16 08:49:25;;;;;;;8.5;4.7;;;;;;;4.41;77.94922;932.5226;;;;
2022/02/16 08:51:52;;;;;;;12.8;8.4;;;;;;;4.66;78.87012;932.5142;;;;
2022/02/16 08:54:17;;;;;;;12.6;8.9;;;;;;;4.39;80.04883;932.5958;;;;
2022/02/16 08:56:49;;;;;;;12.9;8;;;;;;;4.63;80.10352;932.5695;;;;
2022/02/16 08:59:16;;;;;;;8.9;6.1;;;;;;;4.88;79.02441;932.561;;;;
2022/02/16 09:01:43;;;;;;;9.4;6.4;;;;;;;5.06;77.58105;932.4847;;;;
2022/02/16 09:04:13;;;;;;;5.7;3.4;;;;;;;4.53;78.5752;932.4874;;;;
2022/02/16 09:07:27;;;;;;;3;1.9;;;;;;;4.78;75.14063;932.4308;;;;
2022/02/16 09:09:08;;;;;;;5.6;3.6;;;;;;;5.23;73.66504;932.2855;;;;
2022/02/16 09:11:34;;;;;;;6.6;4.6;;;;;;;5.33;75.20508;932.3309;;;;
2022/02/16 09:14:04;;;;;;;8.1;5.1;;;;;;;5.39;74.40234;932.2989;;;;
2022/02/16 09:16:43;;;;;;;7.8;5.5;;;;;;;5.43;75.11035;932.1972;;;;
2022/02/16 09:19:08;;;;;;;8.1;5.7;;;;;;;5.43;75.52734;932.1902;;;;
2022/02/16 09:21:41;;;;;;;8.5;5.7;;;;;;;5.23;76.49609;932.13;;;;
2022/02/16 09:24:26;;;;;;;15.2;8.5;;;;;;;4.96;76.00781;932.1345;;;;
2022/02/16 09:26:52;;;;;;;12.2;8.2;;;;;;;4.86;76.54199;932.1174;;;;
2022/02/16 09:29:15;;;;;;;15.1;8.9;;;;;;;4.76;77.22168;932.1283;;;;
2022/02/16 09:31:40;;;;;;;16.4;9.4;;;;;;;4.93;78.50293;932.0408;;;;
2022/02/16 09:34:10;;;;;;;11.1;7.3;;;;;;;4.89;78.38379;931.9902;;;;
2022/02/16 09:36:35;;;;;;;7.9;5.7;;;;;;;4.93;80.27246;931.968;;;;
2022/02/16 09:39:07;;;;;;;5.1;3.3;;;;;;;5.06;78.4248;932.0254;;;;
2022/02/16 09:41:34;;;;;;;2.4;2.2;;;;;;;5.5;77.76367;931.9514;;;;
2022/02/16 09:43:59;;;;;;;2.7;2.2;;;;;;;5.97;76.44629;931.9681;;;;
2022/02/16 09:46:25;;;;;;;2.5;2.3;;;;;;;6.37;75.79395;931.9291;;;;
2022/02/16 09:48:53;;;;;;;2.7;2;;;;;;;6.66;73.83203;931.8998;;;;
2022/02/16 09:51:18;;;;;;;3.7;3;;;;;;;6.38;72.17773;931.9269;;;;
2022/02/16 09:53:44;;;;;;;5.1;3.3;;;;;;;6.17;71.00293;931.8705;;;;
2022/02/16 09:56:09;;;;;;;4.5;3.2;;;;;;;5.85;70.43945;931.9075;;;;
2022/02/16 09:58:37;;;;;;;4.5;3.1;;;;;;;5.96;72.11914;931.8566;;;;
2022/02/16 10:01:02;;;;;;;5.2;3.7;;;;;;;6.46;73.95605;931.884;;;;
2022/02/16 10:03:31;;;;;;;11.4;6;;;;;;;6.77;71.83496;931.9012;;;;
2022/02/16 10:06:00;;;;;;;15.4;8.1;;;;;;;6.7;73.03516;931.9026;;;;
2022/02/16 10:08:25;;;;;;;13.6;7.2;;;;;;;7.04;73.26367;931.7785;;;;
2022/02/16 10:10:52;;;;;;;14.5;7.8;;;;;;;7.23;73.26172;931.7819;;;;
2022/02/16 10:13:20;;;;;;;11;6.1;;;;;;;6.8;73.9707;931.7505;;;;
2022/02/16 10:15:52;;;;;;;14.7;5.8;;;;;;;7.01;73.50781;931.7172;;;;
2022/02/16 10:18:21;;;;;;;14.4;6.2;;;;;;;6.81;72.05762;931.5662;;;;
2022/02/16 10:20:50;;;;;;;18.3;16;;;;;;;6.98;72.48438;931.5703;;;;
2022/02/16 10:23:13;;;;;;;8.5;5.4;;;;;;;6.94;73.08789;931.5286;;;;
2022/02/16 10:25:42;;;;;;;42.7;13.9;;;;;;;6.79;75.13281;931.5281;;;;
2022/02/16 10:28:07;;;;;;;18;9.3;;;;;;;7.06;74.63672;931.4416;;;;
2022/02/16 10:30:42;;;;;;;57.4;18.5;;;;;;;6.72;78.32324;931.3547;;;;
2022/02/16 10:33:04;;;;;;;4.2;3.1;;;;;;;7.05;72.2666;931.2974;;;;
2022/02/16 10:35:30;;;;;;;4.3;3.4;;;;;;;6.8;73.7666;931.3027;;;;
2022/02/16 10:37:55;;;;;;;4.9;3.8;;;;;;;6.52;74.03516;931.2664;;;;
2022/02/16 10:40:24;;;;;;;12.9;8.6;;;;;;;6.23;74.79785;931.1919;;;;
2022/02/16 10:42:49;;;;;;;14.2;9.1;;;;;;;6.57;73.43164;931.1872;;;;
2022/02/16 10:45:24;;;;;;;14;8.7;;;;;;;7.24;72.30176;931.0972;;;;
2022/02/16 10:47:54;;;;;;;13.8;7.2;;;;;;;7.69;69.06543;931.1423;;;;
2022/02/16 10:50:23;;;;;;;11.7;7.4;;;;;;;8.03;67.67773;931.1266;;;;
2022/02/16 10:52:49;;;;;;;12.6;7.3;;;;;;;8.29;68.55957;931.0889;;;;
2022/02/16 10:55:19;;;;;;;12.9;7.9;;;;;;;8.35;67.46582;931.0769;;;;
2022/02/16 10:57:45;;;;;;;9;5.7;;;;;;;8.06;67.27344;930.9792;;;;
2022/02/16 11:00:10;;;;;;;5.8;3.8;;;;;;;8.31;65.45996;931.0167;;;;
2022/02/16 11:02:35;;;;;;;4.8;4.2;;;;;;;8.21;68.3418;930.9575;;;;
2022/02/16 11:05:00;;;;;;;3.9;3.1;;;;;;;8.04;69.87988;931.0687;;;;
2022/02/16 11:07:30;;;;;;;4.1;2.8;;;;;;;8.1;70.7207;930.9264;;;;
2022/02/16 11:09:58;;;;;;;2.2;1.7;;;;;;;8.04;69.48438;930.9998;;;;
2022/02/16 11:12:24;;;;;;;1.7;1.4;;;;;;;8.12;69.37207;930.9241;;;;
2022/02/16 11:14:55;;;;;;;2.3;2;;;;;;;8.26;71.38184;931.0014;;;;
2022/02/16 11:17:20;;;;;;;1.8;1.6;;;;;;;8.44;69.68457;931.0689;;;;
2022/02/16 11:19:46;;;;;;;1.7;1.5;;;;;;;8.59;68.85742;931.0261;;;;
2022/02/16 11:22:13;;;;;;;9.2;6.4;;;;;;;8.83;67.58691;931.0222;;;;
2022/02/16 11:24:41;;;;;;;2.1;1;;;;;;;8.78;60.37012;931.009;;;;
2022/02/16 11:27:05;;;;;;;1.3;1.1;;;;;;;8.72;59.3623;931.0691;;;;
2022/02/16 11:29:34;;;;;;;1.3;1.1;;;;;;;8.7;60.81348;931.046;;;;
2022/02/16 11:31:57;;;;;;;3.1;1.6;;;;;;;8.77;62.73438;931.0708;;;;
2022/02/16 11:34:22;;;;;;;2.1;1.6;;;;;;;8.54;65.76953;931.025;;;;
2022/02/16 11:36:52;;;;;;;2.8;2.3;;;;;;;8.39;67.43945;931.081;;;;
2022/02/16 11:39:22;;;;;;;2.2;1.7;;;;;;;8.29;68.40039;931.0072;;;;
2022/02/16 11:41:47;;;;;;;2.5;1.4;;;;;;;8.39;67.03027;931.0754;;;;
2022/02/16 11:44:13;;;;;;;1.3;1.2;;;;;;;8.49;67.11426;931.0264;;;;
2022/02/16 11:46:38;;;;;;;1.7;1.1;;;;;;;8.58;65.72949;931.0864;;;;
2022/02/16 11:49:03;;;;;;;1.6;1.4;;;;;;;8.39;63.95117;931.0112;;;;
2022/02/16 11:51:33;;;;;;;1.1;1;;;;;;;8.52;64.71973;931.0955;;;;
2022/02/16 11:53:53;;;;;;;1.3;1.1;;;;;;;8.56;64.52051;931.0726;;;;
2022/02/16 11:56:20;;;;;;;1.4;1.2;;;;;;;8.78;63.50879;931.0916;;;;
2022/02/16 11:58:45;;;;;;;3.1;2.4;;;;;;;8.78;62.67871;931.1209;;;;
2022/02/16 12:01:15;;;;;;;3.6;2.3;;;;;;;8.76;62.84668;931.1105;;;;
2022/02/16 12:03:47;;;;;;;4.7;2.6;;;;;;;8.87;65.02148;931.062;;;;
2022/02/16 12:06:16;;;;;;;7.1;5;;;;;;;8.77;65.40625;931.0597;;;;
2022/02/16 12:08:45;;;;;;;4.9;3.4;;;;;;;8.98;68.77148;931.0561;;;;
2022/02/16 12:11:15;;;;;;;3.9;2.9;;;;;;;9.08;66.1582;930.913;;;;
2022/02/16 12:13:45;;;;;;;2.8;1.9;;;;;;;9;65.16797;931.0236;;;;
2022/02/16 12:16:16;;;;;;;3.1;2.4;;;;;;;9.12;65.90332;930.9711;;;;
2022/02/16 12:18:42;;;;;;;2.3;2.1;;;;;;;9.19;67.85938;930.8672;;;;
2022/02/16 12:21:10;;;;;;;2;1.6;;;;;;;9.13;71.06055;930.8512;;;;
2022/02/16 12:23:39;;;;;;;2.8;1.6;;;;;;;9.36;69.77637;930.7073;;;;
2022/02/16 12:26:01;;;;;;;2.6;1.9;;;;;;;9.29;68.44434;930.7605;;;;
2022/02/16 12:28:26;;;;;;;4;2.9;;;;;;;9.46;67.90234;930.7555;;;;
2022/02/16 12:30:59;;;;;;;4.1;3.3;;;;;;;9.42;69.02441;930.7054;;;;
2022/02/16 12:33:24;;;;;;;6.2;4.5;;;;;;;9.48;70.52441;930.7198;;;;
2022/02/16 12:35:55;;;;;;;6.7;3.8;;;;;;;9.97;68.19824;930.6942;;;;
2022/02/16 12:38:21;;;;;;;6;4.7;;;;;;;10.31;66.87207;930.6946;;;;
2022/02/16 12:40:54;;;;;;;7.7;5.7;;;;;;;10.62;64.24805;930.7381;;;;
2022/02/16 12:43:24;;;;;;;6.5;5.3;;;;;;;10.72;63.56543;930.6591;;;;
2022/02/16 12:45:49;;;;;;;3.8;3.1;;;;;;;10.57;60.2666;930.668;;;;
2022/02/16 12:48:19;;;;;;;4.7;4;;;;;;;10.06;64.29102;930.7031;;;;
2022/02/16 12:50:44;;;;;;;13.9;8.3;;;;;;;10.04;64.40234;930.6738;;;;
2022/02/16 12:53:10;;;;;;;13.6;8.9;;;;;;;9.66;67.18262;930.639;;;;
2022/02/16 12:55:40;;;;;;;11.7;8.1;;;;;;;9.89;67.9707;930.61;;;;
2022/02/16 12:58:08;;;;;;;13.7;8.5;;;;;;;9.91;67.51758;930.5694;;;;
2022/02/16 13:00:48;;;;;;;10.3;7.5;;;;;;;10.2;66.2959;930.5215;;;;
2022/02/16 13:02:58;;;;;;;11.7;7;;;;;;;9.94;66.49512;930.4994;;;;
2022/02/16 13:05:28;;;;;;;8.3;5.3;;;;;;;10.06;63.04785;930.5465;;;;
2022/02/16 13:08:02;;;;;;;8.1;5.6;;;;;;;10.24;64.63574;930.5444;;;;
2022/02/16 13:10:31;;;;;;;5.8;4.1;;;;;;;10.28;63.87793;930.3566;;;;
2022/02/16 13:12:55;;;;;;;6.2;4.3;;;;;;;10.4;61.65918;930.4023;;;;
2022/02/16 13:15:26;;;;;;;5.9;4;;;;;;;10.46;61.86133;930.4694;;;;
2022/02/16 13:17:55;;;;;;;4.7;3.6;;;;;;;10.24;61.14551;930.4641;;;;
2022/02/16 13:20:17;;;;;;;3.2;1.9;;;;;;;9.72;60.14844;930.4889;;;;
2022/02/16 13:22:46;;;;;;;3.9;2.3;;;;;;;9.65;64.02344;930.4897;;;;
2022/02/16 13:25:15;;;;;;;2.6;2.1;;;;;;;9.22;65.38281;930.5252;;;;
2022/02/16 13:27:40;;;;;;;1.9;1.7;;;;;;;8.93;67.1582;930.5017;;;;
2022/02/16 13:30:18;;;;;;;3.7;2.2;;;;;;;9.11;67.00488;930.6074;;;;
2022/02/16 13:32:44;;;;;;;9.2;6.2;;;;;;;9.11;68.00781;930.5708;;;;
2022/02/16 13:35:17;;;;;;;12.1;7.4;;;;;;;9.28;67.93066;930.438;;;;
2022/02/16 13:37:42;;;;;;;7.4;4.7;;;;;;;9.41;67.91797;930.4956;;;;
2022/02/16 13:40:13;;;;;;;9.5;6.2;;;;;;;9.57;69.17285;930.5648;;;;
2022/02/16 13:42:42;;;;;;;11.1;6.4;;;;;;;9.58;67.90918;930.4917;;;;
2022/02/16 13:45:07;;;;;;;8.9;4.8;;;;;;;9.31;70.74902;930.55;;;;
2022/02/16 13:47:32;;;;;;;6.6;4.3;;;;;;;9.33;67.22168;930.4944;;;;
2022/02/16 13:49:58;;;;;;;5.3;3.4;;;;;;;9.43;69.18652;930.4337;;;;
2022/02/16 13:52:23;;;;;;;5.5;3.2;;;;;;;9.65;70.58594;930.3267;;;;
2022/02/16 13:54:50;;;;;;;11.9;6.1;;;;;;;9.33;68.49707;930.3499;;;;
2022/02/16 13:57:16;;;;;;;5.4;3.2;;;;;;;9.38;69.25586;930.3879;;;;
2022/02/16 13:59:44;;;;;;;4.8;2.3;;;;;;;9.07;70.65332;930.3388;;;;
2022/02/16 14:02:09;;;;;;;2.5;1.8;;;;;;;8.73;72.19824;930.0857;;;;
2022/02/16 14:04:39;;;;;;;1.8;1.4;;;;;;;8.72;73.3457;930.1111;;;;
2022/02/16 14:07:06;;;;;;;2.7;1.3;;;;;;;8.52;73.92578;930.0316;;;;
2022/02/16 14:09:32;;;;;;;3;1.5;;;;;;;8.65;74.21973;929.8434;;;;
2022/02/16 14:11:57;;;;;;;1.9;1.5;;;;;;;8.98;73.74316;929.831;;;;
2022/02/16 14:14:25;;;;;;;3.6;3.2;;;;;;;8.8;71.9834;929.8811;;;;
2022/02/16 14:16:54;;;;;;;1.4;1.3;;;;;;;8.9;73.08008;929.8817;;;;
2022/02/16 14:19:25;;;;;;;2.3;1.5;;;;;;;8.77;73.62793;929.8033;;;;
2022/02/16 14:21:44;;;;;;;2.7;1.2;;;;;;;8.62;74.44238;929.8577;;;;
2022/02/16 14:24:10;;;;;;;3;1.6;;;;;;;8.44;76.81055;929.7386;;;;
2022/02/16 14:26:35;;;;;;;1.3;1;;;;;;;8.42;74.71484;929.7528;;;;
2022/02/16 14:29:02;;;;;;;2.1;1.3;;;;;;;8.31;72.8125;929.7424;;;;
2022/02/16 14:31:29;;;;;;;1.5;1.4;;;;;;;8.23;75.39941;929.7411;;;;
2022/02/16 14:33:58;;;;;;;1.4;1.3;;;;;;;8.28;73.67871;929.7477;;;;
2022/02/16 14:36:24;;;;;;;1.7;1.2;;;;;;;8.34;73.87207;929.8292;;;;
2022/02/16 14:38:53;;;;;;;1.4;1.1;;;;;;;8.22;71.38672;929.7879;;;;
2022/02/16 14:41:22;;;;;;;2;1;;;;;;;7.9;73.68262;929.8222;;;;
2022/02/16 14:43:47;;;;;;;0.8;0.5;;;;;;;7.75;72.63672;929.7521;;;;
2022/02/16 14:46:14;;;;;;;0.8;0.6;;;;;;;7.76;72.28613;929.8172;;;;
2022/02/16 14:48:43;;;;;;;0.9;0.8;;;;;;;7.7;72.98047;929.7407;;;;
2022/02/16 14:51:15;;;;;;;2.2;0.8;;;;;;;7.82;71.5127;929.7845;;;;
2022/02/16 14:53:40;;;;;;;0.9;0.6;;;;;;;7.65;72.39258;929.8267;;;;
2022/02/16 14:56:08;;;;;;;0.8;0.7;;;;;;;7.45;73.49316;929.8663;;;;
2022/02/16 14:58:33;;;;;;;0.7;0.7;;;;;;;7.24;73.89941;929.7551;;;;
2022/02/16 15:01:01;;;;;;;1.1;1;;;;;;;7.37;74.54297;929.8519;;;;
2022/02/16 15:03:26;;;;;;;0.6;0.6;;;;;;;7.37;74.43066;929.8741;;;;
2022/02/16 15:05:57;;;;;;;0.4;0.4;;;;;;;7.27;75.53418;929.8059;;;;
2022/02/16 15:08:27;;;;;;;1.3;0.6;;;;;;;7.34;74.89063;930.0022;;;;
2022/02/16 15:10:59;;;;;;;0.9;0.7;;;;;;;7.5;73.875;929.8943;;;;
2022/02/16 15:13:28;;;;;;;0.6;0.6;;;;;;;7.37;75.68945;929.8978;;;;
2022/02/16 15:16:06;;;;;;;1.8;1.4;;;;;;;7.43;76.32422;929.8361;;;;
2022/02/16 15:18:31;;;;;;;3.6;2.1;;;;;;;7.42;75.6084;929.889;;;;
2022/02/16 15:21:02;;;;;;;3.6;2.5;;;;;;;7.28;76.17188;929.8845;;;;
2022/02/16 15:24:13;;;;;;;1.3;0.8;;;;;;;6.95;76.87109;929.9095;;;;
2022/02/16 15:26:37;;;;;;;0.8;0.6;;;;;;;6.81;80.2998;929.9612;;;;
2022/02/16 15:29:02;;;;;;;1.6;1.1;;;;;;;6.89;81.18457;930.0474;;;;
2022/02/16 15:31:29;;;;;;;2.7;1.8;;;;;;;7.03;82.28809;929.9462;;;;
2022/02/16 15:33:59;;;;;;;3.2;2.2;;;;;;;7.26;82.96582;930.0133;;;;
2022/02/16 15:36:24;;;;;;;2.9;2.1;;;;;;;7.4;83.28809;929.9297;;;;
2022/02/16 15:38:51;;;;;;;3.8;1.8;;;;;;;7.6;83.98633;930.1328;;;;
2022/02/16 15:41:16;;;;;;;1.6;1.4;;;;;;;7.5;82.74121;930.0892;;;;
2022/02/16 15:43:48;;;;;;;1.4;1.3;;;;;;;7.48;82.4082;930.1968;;;;
2022/02/16 15:46:18;;;;;;;4.4;1.5;;;;;;;7.55;81.42285;930.2139;;;;
2022/02/16 15:48:47;;;;;;;3.3;2.6;;;;;;;7.42;82.02246;930.2668;;;;
2022/02/16 15:51:20;;;;;;;2.2;2;;;;;;;7.28;81.76953;930.1403;;;;